Time;durP1;ratioP1;P1;durP2;ratioP2;P2;SDS_P1;SDS_P2;PMS_P1;PMS_P2;Temp;Humidity;BMP_temperature;BMP_pressure;BME280_temperature;BME280_humidity;BME280_pressure;Samples;Min_cycle;Max_cycle;Signal;HPM_P1;HPM_P2
2023/08/07 00:00:42;;;;;;;;;;;26.50;75.60;;;;;;5168062;27;19914;-33
2023/08/07 00:03:08;;;;;;;;;;;26.50;75.70;;;;;;5181816;27;19959;-32
2023/08/07 00:05:34;;;;;;;;;;;26.50;75.70;;;;;;5175699;27;20355;-33
2023/08/07 00:08:00;;;;;;;;;;;26.50;75.70;;;;;;5176035;27;19915;-33
2023/08/07 00:10:26;;;;;;;;;;;26.40;75.70;;;;;;5174703;27;19915;-33
2023/08/07 00:12:52;;;;;;;;;;;26.40;75.70;;;;;;5154403;27;20446;-33
2023/08/07 00:15:18;;;;;;;;;;;26.40;75.70;;;;;;5177291;27;19937;-37
2023/08/07 00:17:43;;;;;;;;;;;26.40;75.70;;;;;;5167706;27;19915;-33
2023/08/07 00:20:09;;;;;;;;;;;26.40;75.60;;;;;;5173231;27;19954;-33
2023/08/07 00:22:35;;;;;;;;;;;26.40;75.40;;;;;;5167226;27;19918;-33
2023/08/07 00:25:01;;;;;;;;;;;26.40;75.40;;;;;;5173891;27;19911;-33
2023/08/07 00:27:27;;;;;;;;;;;26.40;75.40;;;;;;5155341;27;19922;-33
2023/08/07 00:29:53;;;;;;;;;;;26.40;75.30;;;;;;5171491;27;19915;-37
2023/08/07 00:32:19;;;;;;;;;;;26.40;75.30;;;;;;5167014;27;19943;-33
2023/08/07 00:34:45;;;;;;;;;;;26.40;75.20;;;;;;5175471;27;19926;-33
2023/08/07 00:37:11;;;;;;;;;;;26.40;75.30;;;;;;5181396;27;19938;-33
2023/08/07 00:39:36;;;;;;;;;;;26.40;75.30;;;;;;5166957;27;19965;-33
2023/08/07 00:42:03;;;;;;;;;;;26.40;75.30;;;;;;5174511;27;19944;-33
2023/08/07 00:44:28;;;;;;;;;;;26.40;75.30;;;;;;5162069;27;20509;-33
2023/08/07 00:46:54;;;;;;;;;;;26.40;75.30;;;;;;5173896;27;19911;-33
2023/08/07 00:49:20;;;;;;;;;;;26.30;75.30;;;;;;5177937;27;20406;-33
2023/08/07 00:51:46;;;;;;;;;;;26.30;75.30;;;;;;5184650;27;19911;-33
2023/08/07 00:54:12;;;;;;;;;;;26.30;75.30;;;;;;5168436;27;20006;-33
2023/08/07 00:56:38;;;;;;;;;;;26.30;75.30;;;;;;5150991;27;19922;-33
2023/08/07 00:59:04;;;;;;;;;;;26.30;75.30;;;;;;5181075;27;20022;-33
2023/08/07 01:01:30;;;;;;;;;;;26.30;75.30;;;;;;5181516;27;19911;-33
2023/08/07 01:03:56;;;;;;;;;;;26.30;75.30;;;;;;5150290;27;19918;-33
2023/08/07 01:06:21;;;;;;;;;;;26.30;75.30;;;;;;5173580;27;19915;-33
2023/08/07 01:08:47;;;;;;;;;;;26.30;75.30;;;;;;5175987;27;19911;-33
2023/08/07 01:11:18;;;;;;;;;;;26.30;75.30;;;;;;5180151;27;19914;-33
2023/08/07 01:13:56;;;;;;;;;;;26.30;75.40;;;;;;5180416;27;19914;-34
2023/08/07 01:16:27;;;;;;;;;;;26.30;75.40;;;;;;5174000;27;19915;-34
2023/08/07 01:18:54;;;;;;;;;;;26.30;75.30;;;;;;5149436;27;19944;-33
2023/08/07 01:21:20;;;;;;;;;;;26.30;75.40;;;;;;5175969;27;20542;-33
2023/08/07 01:23:46;;;;;;;;;;;26.20;75.30;;;;;;5172657;27;19915;-33
2023/08/07 01:26:12;;;;;;;;;;;26.20;75.30;;;;;;5157127;27;19914;-33
2023/08/07 01:28:39;;;;;;;;;;;26.20;75.30;;;;;;5166036;27;19938;-34
2023/08/07 01:31:07;;;;;;;;;;;26.20;75.30;;;;;;5166063;27;19911;-33
2023/08/07 01:33:35;;;;;;;;;;;26.20;75.50;;;;;;5147582;27;20665;-33
2023/08/07 01:36:01;;;;;;;;;;;26.20;75.40;;;;;;5169870;27;19934;-33
2023/08/07 01:38:27;;;;;;;;;;;26.20;75.40;;;;;;5169724;27;19947;-34
2023/08/07 01:40:53;;;;;;;;;;;26.20;75.50;;;;;;5151156;27;19915;-34
2023/08/07 01:43:19;;;;;;;;;;;26.20;75.60;;;;;;5187935;27;20518;-33
2023/08/07 01:45:45;;;;;;;;;;;26.20;75.60;;;;;;5172954;27;19941;-34
2023/08/07 01:48:11;;;;;;;;;;;26.10;75.60;;;;;;5180214;27;19926;-34
2023/08/07 01:50:37;;;;;;;;;;;26.10;75.50;;;;;;5180593;27;19922;-34
2023/08/07 01:53:03;;;;;;;;;;;26.10;75.60;;;;;;5183692;27;19942;-33
2023/08/07 01:55:29;;;;;;;;;;;26.10;75.50;;;;;;5173872;27;19981;-33
2023/08/07 01:57:55;;;;;;;;;;;26.10;75.60;;;;;;5181739;27;19919;-33
2023/08/07 02:00:21;;;;;;;;;;;26.10;75.60;;;;;;5182335;27;19919;-34
2023/08/07 02:02:47;;;;;;;;;;;26.10;75.60;;;;;;5178964;27;19918;-33
2023/08/07 02:05:13;;;;;;;;;;;26.10;75.60;;;;;;5180121;27;20493;-33
2023/08/07 02:07:39;;;;;;;;;;;26.10;75.60;;;;;;5180561;27;19918;-34
2023/08/07 02:10:05;;;;;;;;;;;26.10;75.60;;;;;;5183440;27;19911;-34
2023/08/07 02:12:33;;;;;;;;;;;26.10;75.60;;;;;;5186541;27;19959;-34
2023/08/07 02:14:59;;;;;;;;;;;26.10;75.60;;;;;;5177293;27;19922;-34
2023/08/07 02:17:26;;;;;;;;;;;26.10;75.70;;;;;;5177950;27;19926;-33
2023/08/07 02:19:51;;;;;;;;;;;26.10;75.70;;;;;;5182782;27;19923;-34
2023/08/07 02:22:17;;;;;;;;;;;26.00;75.60;;;;;;5162208;27;19915;-33
2023/08/07 02:24:43;;;;;;;;;;;26.00;75.70;;;;;;5183628;27;19921;-34
2023/08/07 02:27:09;;;;;;;;;;;26.00;75.60;;;;;;5184137;27;19921;-33
2023/08/07 02:29:35;;;;;;;;;;;26.00;75.60;;;;;;5179843;27;19915;-33
2023/08/07 02:32:04;;;;;;;;;;;26.00;75.70;;;;;;5179889;27;19923;-33
2023/08/07 02:34:30;;;;;;;;;;;26.00;75.60;;;;;;5187053;27;19911;-34
2023/08/07 02:36:56;;;;;;;;;;;26.00;75.70;;;;;;5160007;27;19916;-34
2023/08/07 02:39:22;;;;;;;;;;;26.00;75.60;;;;;;5173536;27;20060;-34
2023/08/07 02:41:48;;;;;;;;;;;26.00;75.70;;;;;;5183665;27;19981;-33
2023/08/07 02:44:14;;;;;;;;;;;25.90;75.60;;;;;;5188950;27;19911;-33
2023/08/07 02:46:40;;;;;;;;;;;25.90;75.60;;;;;;5186360;27;19922;-33
2023/08/07 02:49:05;;;;;;;;;;;25.90;75.70;;;;;;5181751;27;19950;-33
2023/08/07 02:51:32;;;;;;;;;;;25.90;75.70;;;;;;5182652;27;19911;-34
2023/08/07 02:53:58;;;;;;;;;;;25.90;75.60;;;;;;5186732;27;19915;-33
2023/08/07 02:56:23;;;;;;;;;;;25.90;75.70;;;;;;5181429;27;19974;-33
2023/08/07 02:58:49;;;;;;;;;;;25.90;75.70;;;;;;5184003;27;19950;-34
2023/08/07 03:01:15;;;;;;;;;;;25.90;75.70;;;;;;5183660;27;19915;-33
2023/08/07 03:03:41;;;;;;;;;;;25.90;75.70;;;;;;5185496;27;19914;-34
2023/08/07 03:06:07;;;;;;;;;;;25.80;75.70;;;;;;5183014;27;19970;-35
2023/08/07 03:08:33;;;;;;;;;;;25.90;75.70;;;;;;5185822;27;19915;-34
2023/08/07 03:10:59;;;;;;;;;;;25.80;75.80;;;;;;5173690;27;19915;-33
2023/08/07 03:13:25;;;;;;;;;;;25.80;75.80;;;;;;5175768;27;19934;-34
2023/08/07 03:15:58;;;;;;;;;;;25.80;75.70;;;;;;5173894;27;19936;-34
2023/08/07 03:18:24;;;;;;;;;;;25.80;75.80;;;;;;5176746;27;19915;-34
2023/08/07 03:20:50;;;;;;;;;;;25.80;75.80;;;;;;5180271;27;19915;-33
2023/08/07 03:23:15;;;;;;;;;;;25.80;75.80;;;;;;5169917;27;19921;-34
2023/08/07 03:25:41;;;;;;;;;;;25.80;75.90;;;;;;5168503;27;19936;-33
2023/08/07 03:28:07;;;;;;;;;;;25.80;75.80;;;;;;5185096;27;19922;-33
2023/08/07 03:30:33;;;;;;;;;;;25.80;75.80;;;;;;5175448;27;19975;-34
2023/08/07 03:32:59;;;;;;;;;;;25.80;75.90;;;;;;5175296;27;19919;-33
2023/08/07 03:35:25;;;;;;;;;;;25.80;75.90;;;;;;5178191;27;19927;-33
2023/08/07 03:37:51;;;;;;;;;;;25.80;75.90;;;;;;5168387;27;20585;-33
2023/08/07 03:40:16;;;;;;;;;;;25.80;75.90;;;;;;5176852;27;19919;-34
2023/08/07 03:42:42;;;;;;;;;;;25.80;75.90;;;;;;5175542;27;19961;-34
2023/08/07 03:45:08;;;;;;;;;;;25.80;76.00;;;;;;5168155;27;19959;-33
2023/08/07 03:47:34;;;;;;;;;;;25.70;75.90;;;;;;5177915;27;19914;-33
2023/08/07 03:50:00;;;;;;;;;;;25.70;75.90;;;;;;5183296;27;19921;-33
2023/08/07 03:52:26;;;;;;;;;;;25.70;75.90;;;;;;5170788;27;20375;-33
2023/08/07 03:54:52;;;;;;;;;;;25.70;75.90;;;;;;5154550;27;20095;-34
2023/08/07 03:57:18;;;;;;;;;;;25.70;75.90;;;;;;5170139;27;19915;-34
2023/08/07 03:59:45;;;;;;;;;;;25.70;76.00;;;;;;5176536;27;19919;-33
2023/08/07 04:02:10;;;;;;;;;;;25.70;75.90;;;;;;5170270;27;19982;-33
2023/08/07 04:04:36;;;;;;;;;;;25.70;75.90;;;;;;5171076;27;19915;-34
2023/08/07 04:07:02;;;;;;;;;;;25.70;75.90;;;;;;5172396;27;19911;-34
2023/08/07 04:09:28;;;;;;;;;;;25.60;75.80;;;;;;5174488;27;19921;-34
2023/08/07 04:11:54;;;;;;;;;;;25.60;75.80;;;;;;5179986;27;19925;-33
2023/08/07 04:14:20;;;;;;;;;;;25.60;75.90;;;;;;5175921;27;19922;-33
2023/08/07 04:16:46;;;;;;;;;;;25.60;75.80;;;;;;5175022;27;19914;-34
2023/08/07 04:19:12;;;;;;;;;;;25.60;75.80;;;;;;5172265;27;19966;-33
2023/08/07 04:21:38;;;;;;;;;;;25.60;75.90;;;;;;5178511;27;19921;-33
2023/08/07 04:24:10;;;;;;;;;;;25.60;76.00;;;;;;5184075;27;19953;-33
2023/08/07 04:26:37;;;;;;;;;;;25.60;75.90;;;;;;5172342;27;19914;-33
2023/08/07 04:29:03;;;;;;;;;;;25.60;76.00;;;;;;5178406;27;19915;-34
2023/08/07 04:31:31;;;;;;;;;;;25.60;76.00;;;;;;5174161;27;19915;-34
2023/08/07 04:33:57;;;;;;;;;;;25.60;76.00;;;;;;5176687;27;19918;-41
2023/08/07 04:36:23;;;;;;;;;;;25.60;76.10;;;;;;5176004;27;19930;-33
2023/08/07 04:38:49;;;;;;;;;;;25.60;76.00;;;;;;5177317;27;19929;-33
2023/08/07 04:41:15;;;;;;;;;;;25.60;76.00;;;;;;5174031;27;19911;-33
2023/08/07 04:43:42;;;;;;;;;;;25.60;76.00;;;;;;5177574;27;19922;-34
2023/08/07 04:46:09;;;;;;;;;;;25.50;75.80;;;;;;5177252;27;19914;-33
2023/08/07 04:48:38;;;;;;;;;;;25.50;75.90;;;;;;5174760;27;19918;-38
2023/08/07 04:51:04;;;;;;;;;;;25.50;75.80;;;;;;5177746;27;19981;-34
2023/08/07 04:53:29;;;;;;;;;;;25.50;75.80;;;;;;5174650;27;19950;-34
2023/08/07 04:55:55;;;;;;;;;;;25.50;75.90;;;;;;5168106;27;20290;-33
2023/08/07 04:58:21;;;;;;;;;;;25.50;75.90;;;;;;5173677;27;20314;-33
2023/08/07 05:00:47;;;;;;;;;;;25.50;75.90;;;;;;5177952;27;20034;-33
2023/08/07 05:03:15;;;;;;;;;;;25.50;76.00;;;;;;5182311;27;19914;-33
2023/08/07 05:05:41;;;;;;;;;;;25.50;76.00;;;;;;5172613;27;19975;-33
2023/08/07 05:08:07;;;;;;;;;;;25.50;76.00;;;;;;5176829;27;20002;-33
2023/08/07 05:10:32;;;;;;;;;;;25.40;76.10;;;;;;5178309;27;19915;-33
2023/08/07 05:12:58;;;;;;;;;;;25.40;76.00;;;;;;5167285;27;20375;-33
2023/08/07 05:15:25;;;;;;;;;;;25.40;76.00;;;;;;5175102;27;19919;-33
2023/08/07 05:17:51;;;;;;;;;;;25.40;76.00;;;;;;5177076;27;19922;-33
2023/08/07 05:20:17;;;;;;;;;;;25.40;76.00;;;;;;5180571;27;20458;-33
2023/08/07 05:22:43;;;;;;;;;;;25.40;75.90;;;;;;5172421;27;20030;-34
2023/08/07 05:25:09;;;;;;;;;;;25.40;76.00;;;;;;5148216;27;19979;-33
2023/08/07 05:27:35;;;;;;;;;;;25.40;76.00;;;;;;5166803;27;19912;-33
2023/08/07 05:30:01;;;;;;;;;;;25.40;75.90;;;;;;5166407;27;19926;-33
2023/08/07 05:32:28;;;;;;;;;;;25.40;76.00;;;;;;5179842;27;19915;-33
2023/08/07 05:34:53;;;;;;;;;;;25.40;76.00;;;;;;5170512;27;19946;-34
2023/08/07 05:37:19;;;;;;;;;;;25.40;76.00;;;;;;5154389;27;20348;-33
2023/08/07 05:39:45;;;;;;;;;;;25.40;76.00;;;;;;5157187;27;19942;-33
2023/08/07 05:42:12;;;;;;;;;;;25.40;76.00;;;;;;5148460;27;19922;-33
2023/08/07 05:44:38;;;;;;;;;;;25.30;76.00;;;;;;5148944;27;19915;-33
2023/08/07 05:47:04;;;;;;;;;;;25.30;75.90;;;;;;5130768;28;20301;-35
2023/08/07 05:49:30;;;;;;;;;;;25.30;76.00;;;;;;5148603;27;19911;-34
2023/08/07 05:51:55;;;;;;;;;;;25.30;76.00;;;;;;5159033;27;20004;-34
2023/08/07 05:54:21;;;;;;;;;;;25.30;76.00;;;;;;5163147;27;20018;-33
2023/08/07 05:56:47;;;;;;;;;;;25.30;76.10;;;;;;5154474;27;19915;-33
2023/08/07 05:59:13;;;;;;;;;;;25.30;76.10;;;;;;5159741;27;19944;-34
2023/08/07 06:01:40;;;;;;;;;;;25.30;76.00;;;;;;5144501;27;19967;-33
2023/08/07 06:04:06;;;;;;;;;;;25.30;76.00;;;;;;5156040;27;20641;-34
2023/08/07 06:06:34;;;;;;;;;;;25.30;76.10;;;;;;5155302;27;19919;-33
2023/08/07 06:09:01;;;;;;;;;;;25.20;76.00;;;;;;5152521;27;19911;-34
2023/08/07 06:11:27;;;;;;;;;;;25.20;76.00;;;;;;5159815;27;19915;-33
2023/08/07 06:13:53;;;;;;;;;;;25.20;76.00;;;;;;5150268;27;19922;-33
2023/08/07 06:16:19;;;;;;;;;;;25.20;76.00;;;;;;5147857;27;19954;-33
2023/08/07 06:18:45;;;;;;;;;;;25.20;76.00;;;;;;5145513;27;19919;-34
2023/08/07 06:21:11;;;;;;;;;;;25.20;76.00;;;;;;5153029;27;19944;-33
2023/08/07 06:23:37;;;;;;;;;;;25.20;76.00;;;;;;5156012;27;19911;-33
2023/08/07 06:26:08;;;;;;;;;;;25.20;76.00;;;;;;5159120;27;19922;-33
2023/08/07 06:28:35;;;;;;;;;;;25.20;76.00;;;;;;5149270;27;20023;-33
2023/08/07 06:31:04;;;;;;;;;;;25.20;76.20;;;;;;5167535;27;19962;-33
2023/08/07 06:33:30;;;;;;;;;;;25.20;76.10;;;;;;5164540;27;19939;-33
2023/08/07 06:35:57;;;;;;;;;;;25.20;76.10;;;;;;5184122;27;20036;-33
2023/08/07 06:38:23;;;;;;;;;;;25.20;76.10;;;;;;5184025;27;19953;-33
2023/08/07 06:40:49;;;;;;;;;;;25.20;76.20;;;;;;5180700;27;19919;-33
2023/08/07 06:43:14;;;;;;;;;;;25.20;76.20;;;;;;5185952;27;19918;-33
2023/08/07 06:45:40;;;;;;;;;;;25.10;76.10;;;;;;5177349;27;19932;-33
2023/08/07 06:48:06;;;;;;;;;;;25.10;76.10;;;;;;5175944;27;19917;-34
2023/08/07 06:50:32;;;;;;;;;;;25.10;76.20;;;;;;5179953;27;19915;-34
2023/08/07 06:52:58;;;;;;;;;;;25.10;76.10;;;;;;5183421;27;19961;-33
2023/08/07 06:55:24;;;;;;;;;;;25.10;76.10;;;;;;5185057;27;19917;-34
2023/08/07 06:57:50;;;;;;;;;;;25.10;76.20;;;;;;5171033;27;19911;-34
2023/08/07 07:00:16;;;;;;;;;;;25.10;76.10;;;;;;5169209;27;19923;-34
2023/08/07 07:02:41;;;;;;;;;;;25.10;76.20;;;;;;5175373;27;19911;-33
2023/08/07 07:05:07;;;;;;;;;;;25.10;76.20;;;;;;5180346;27;19922;-33
2023/08/07 07:07:33;;;;;;;;;;;25.10;76.20;;;;;;5181260;27;19921;-34
2023/08/07 07:10:00;;;;;;;;;;;25.00;76.20;;;;;;5168751;27;20022;-33
2023/08/07 07:12:29;;;;;;;;;;;25.00;76.20;;;;;;5181336;27;19927;-33
2023/08/07 07:14:55;;;;;;;;;;;25.00;76.20;;;;;;5187824;27;19922;-34
2023/08/07 07:17:21;;;;;;;;;;;25.00;76.20;;;;;;5160507;27;19915;-33
2023/08/07 07:19:47;;;;;;;;;;;25.00;76.20;;;;;;5184548;27;19919;-33
2023/08/07 07:22:13;;;;;;;;;;;25.00;76.20;;;;;;5179117;27;19915;-33
2023/08/07 07:24:39;;;;;;;;;;;25.00;76.20;;;;;;5182092;27;19911;-33
2023/08/07 07:27:05;;;;;;;;;;;25.00;76.20;;;;;;5173722;27;19918;-34
2023/08/07 07:29:30;;;;;;;;;;;25.00;76.20;;;;;;5176938;27;19914;-34
2023/08/07 07:31:56;;;;;;;;;;;25.00;76.20;;;;;;5168619;27;19933;-34
2023/08/07 07:34:22;;;;;;;;;;;25.00;76.20;;;;;;5170947;27;19918;-34
2023/08/07 07:36:48;;;;;;;;;;;25.00;76.20;;;;;;5181271;27;19915;-33
2023/08/07 07:39:14;;;;;;;;;;;25.00;76.20;;;;;;5179374;27;19978;-34
2023/08/07 07:41:40;;;;;;;;;;;25.00;76.30;;;;;;5185618;27;19937;-33
2023/08/07 07:44:06;;;;;;;;;;;25.00;76.30;;;;;;5185397;27;19906;-33
2023/08/07 07:46:32;;;;;;;;;;;24.90;76.20;;;;;;5168166;27;19922;-33
2023/08/07 07:48:58;;;;;;;;;;;24.90;76.30;;;;;;5170149;27;19918;-34
2023/08/07 07:51:24;;;;;;;;;;;24.90;76.30;;;;;;5167042;27;19912;-34
2023/08/07 07:53:50;;;;;;;;;;;24.90;76.40;;;;;;5172592;27;19911;-33
2023/08/07 07:56:16;;;;;;;;;;;24.90;76.40;;;;;;5174221;27;19941;-33
2023/08/07 07:58:43;;;;;;;;;;;24.90;76.40;;;;;;5178773;27;19915;-33
2023/08/07 08:01:09;;;;;;;;;;;24.90;76.30;;;;;;5180517;27;19965;-33
2023/08/07 08:03:36;;;;;;;;;;;24.90;76.40;;;;;;5175224;27;19915;-34
2023/08/07 08:06:01;;;;;;;;;;;24.90;76.40;;;;;;5174351;27;19917;-33
2023/08/07 08:08:27;;;;;;;;;;;24.90;76.40;;;;;;5160967;27;19915;-33
2023/08/07 08:10:53;;;;;;;;;;;24.90;76.40;;;;;;5172222;27;19910;-33
2023/08/07 08:13:19;;;;;;;;;;;24.90;76.50;;;;;;5175397;27;19946;-33
2023/08/07 08:15:45;;;;;;;;;;;24.90;76.40;;;;;;5167109;27;19911;-33
2023/08/07 08:18:11;;;;;;;;;;;24.90;76.40;;;;;;5148024;27;19915;-33
2023/08/07 08:20:37;;;;;;;;;;;24.80;76.40;;;;;;5167493;27;19926;-33
2023/08/07 08:23:03;;;;;;;;;;;24.80;76.40;;;;;;5166438;27;19915;-33
2023/08/07 08:25:29;;;;;;;;;;;24.80;76.50;;;;;;5166350;27;19942;-33
2023/08/07 08:27:55;;;;;;;;;;;24.80;76.40;;;;;;5166507;27;19922;-34
2023/08/07 08:30:21;;;;;;;;;;;24.80;76.50;;;;;;5173972;27;19915;-33
2023/08/07 08:32:47;;;;;;;;;;;24.80;76.40;;;;;;5174953;27;20648;-34
2023/08/07 08:35:13;;;;;;;;;;;24.80;76.50;;;;;;5179237;27;19934;-33
2023/08/07 08:37:40;;;;;;;;;;;24.80;76.50;;;;;;5169339;27;19911;-33
2023/08/07 08:40:07;;;;;;;;;;;24.80;76.50;;;;;;5173614;27;19978;-33
2023/08/07 08:42:34;;;;;;;;;;;24.80;76.50;;;;;;5156383;27;19915;-33
2023/08/07 08:45:00;;;;;;;;;;;24.80;76.50;;;;;;5166304;27;19974;-33
2023/08/07 08:47:26;;;;;;;;;;;24.80;76.50;;;;;;5166108;27;19922;-33
2023/08/07 08:49:58;;;;;;;;;;;24.80;76.50;;;;;;5130542;27;19926;-33
2023/08/07 08:52:24;;;;;;;;;;;24.80;76.50;;;;;;5173097;27;19917;-33
2023/08/07 08:54:50;;;;;;;;;;;24.80;76.50;;;;;;5179869;27;19977;-34
2023/08/07 08:57:16;;;;;;;;;;;24.80;76.50;;;;;;5179045;27;19922;-33
2023/08/07 08:59:42;;;;;;;;;;;24.70;76.50;;;;;;5174545;27;19941;-34
2023/08/07 09:02:08;;;;;;;;;;;24.70;76.40;;;;;;5162417;27;19915;-33
2023/08/07 09:04:34;;;;;;;;;;;24.70;76.50;;;;;;5152816;27;19915;-33
2023/08/07 09:07:00;;;;;;;;;;;24.70;76.50;;;;;;5152449;27;19914;-34
2023/08/07 09:09:26;;;;;;;;;;;24.70;76.50;;;;;;5155219;27;19925;-33
2023/08/07 09:11:53;;;;;;;;;;;24.70;76.60;;;;;;5166154;27;20010;-33
2023/08/07 09:14:20;;;;;;;;;;;24.70;76.50;;;;;;5151046;27;19915;-34
2023/08/07 09:16:47;;;;;;;;;;;24.70;76.60;;;;;;5172793;27;19915;-33
2023/08/07 09:19:13;;;;;;;;;;;24.70;76.60;;;;;;5149717;27;19919;-34
2023/08/07 09:21:39;;;;;;;;;;;24.70;76.60;;;;;;5177766;27;19915;-33
2023/08/07 09:24:05;;;;;;;;;;;24.70;76.70;;;;;;5169648;27;19911;-33
2023/08/07 09:26:34;;;;;;;;;;;24.70;76.60;;;;;;5180755;27;19919;-33
2023/08/07 09:28:59;;;;;;;;;;;24.60;76.60;;;;;;5176611;27;20430;-33
2023/08/07 09:31:30;;;;;;;;;;;24.60;76.60;;;;;;5182786;27;19930;-34
2023/08/07 09:34:01;;;;;;;;;;;24.60;76.60;;;;;;5182541;27;19953;-33
2023/08/07 09:36:26;;;;;;;;;;;24.60;76.60;;;;;;5156942;27;19927;-33
2023/08/07 09:38:52;;;;;;;;;;;24.60;76.60;;;;;;5173025;27;19930;-34
2023/08/07 09:41:19;;;;;;;;;;;24.60;76.60;;;;;;5180706;27;19914;-33
2023/08/07 09:43:45;;;;;;;;;;;24.60;76.60;;;;;;5180315;27;19932;-33
2023/08/07 09:46:11;;;;;;;;;;;24.60;76.60;;;;;;5175736;27;19922;-33
2023/08/07 09:48:41;;;;;;;;;;;24.60;76.60;;;;;;5176956;27;19919;-33
2023/08/07 09:51:06;;;;;;;;;;;24.60;76.70;;;;;;5172718;27;19915;-34
2023/08/07 09:53:32;;;;;;;;;;;24.60;76.70;;;;;;5169121;27;20366;-33
2023/08/07 09:55:58;;;;;;;;;;;24.60;76.70;;;;;;5175477;27;19922;-33
2023/08/07 09:58:24;;;;;;;;;;;24.60;76.70;;;;;;5167704;27;19947;-33
2023/08/07 10:00:53;;;;;;;;;;;24.60;76.70;;;;;;5178937;27;19968;-33
2023/08/07 10:03:19;;;;;;;;;;;24.60;76.70;;;;;;5176954;27;19922;-33
2023/08/07 10:05:45;;;;;;;;;;;24.50;76.70;;;;;;5175926;27;19985;-33
2023/08/07 10:08:11;;;;;;;;;;;24.50;76.60;;;;;;5159504;27;19919;-33
2023/08/07 10:10:37;;;;;;;;;;;24.50;76.60;;;;;;5180190;27;19914;-34
2023/08/07 10:13:02;;;;;;;;;;;24.50;76.60;;;;;;5185328;27;19915;-34
2023/08/07 10:15:29;;;;;;;;;;;24.50;76.70;;;;;;5176710;27;19915;-33
2023/08/07 10:17:55;;;;;;;;;;;24.50;76.70;;;;;;5174947;27;19954;-33
2023/08/07 10:20:21;;;;;;;;;;;24.50;76.70;;;;;;5153579;27;19934;-33
2023/08/07 10:22:47;;;;;;;;;;;24.50;76.70;;;;;;5181411;27;19921;-34
2023/08/07 10:25:13;;;;;;;;;;;24.50;76.80;;;;;;5179493;27;19914;-33
2023/08/07 10:27:40;;;;;;;;;;;24.50;76.70;;;;;;5180690;27;19938;-34
2023/08/07 10:30:09;;;;;;;;;;;24.50;76.80;;;;;;5157216;27;19915;-34
2023/08/07 10:32:35;;;;;;;;;;;24.50;76.70;;;;;;5158499;27;19967;-33
2023/08/07 10:35:07;;;;;;;;;;;24.50;76.80;;;;;;5180842;27;20793;-34
2023/08/07 10:37:38;;;;;;;;;;;24.50;76.80;;;;;;5177491;27;20433;-33
2023/08/07 10:40:04;;;;;;;;;;;24.50;76.80;;;;;;5176642;27;19923;-33
2023/08/07 10:42:50;;;;;;;;;;;24.50;76.80;;;;;;5179160;27;19970;-33
2023/08/07 10:45:21;;;;;;;;;;;24.50;76.80;;;;;;5157268;27;20001;-33
2023/08/07 10:48:05;;;;;;;;;;;24.50;76.80;;;;;;5168497;27;19910;-33
2023/08/07 10:50:31;;;;;;;;;;;24.40;76.80;;;;;;5168758;27;19915;-33
2023/08/07 10:52:59;;;;;;;;;;;24.40;76.80;;;;;;5176083;27;19922;-34
2023/08/07 10:55:26;;;;;;;;;;;24.40;76.80;;;;;;5170698;27;19911;-33
2023/08/07 10:57:53;;;;;;;;;;;24.40;76.80;;;;;;5160620;27;20583;-33
2023/08/07 11:00:22;;;;;;;;;;;24.40;76.80;;;;;;5149503;27;20006;-33
2023/08/07 11:02:48;;;;;;;;;;;24.40;76.90;;;;;;5155113;27;19953;-33
2023/08/07 11:05:15;;;;;;;;;;;24.40;76.90;;;;;;5180798;27;19918;-33
2023/08/07 11:07:41;;;;;;;;;;;24.40;76.90;;;;;;5178079;27;19918;-33
2023/08/07 11:10:07;;;;;;;;;;;24.40;76.90;;;;;;5157876;27;20085;-33
2023/08/07 11:12:33;;;;;;;;;;;24.40;76.90;;;;;;5167884;27;19915;-33
2023/08/07 11:14:59;;;;;;;;;;;24.40;76.90;;;;;;5173288;27;19922;-33
2023/08/07 11:17:25;;;;;;;;;;;24.30;76.90;;;;;;5169506;27;19962;-34
2023/08/07 11:19:51;;;;;;;;;;;24.40;76.90;;;;;;5168206;27;19923;-33
2023/08/07 11:22:17;;;;;;;;;;;24.30;77.00;;;;;;5168830;27;19918;-33
2023/08/07 11:24:43;;;;;;;;;;;24.40;77.00;;;;;;5177601;27;19914;-33
2023/08/07 11:27:09;;;;;;;;;;;24.30;76.90;;;;;;5181014;27;19917;-33
2023/08/07 11:29:35;;;;;;;;;;;24.30;77.00;;;;;;5175220;27;20355;-34
2023/08/07 11:32:00;;;;;;;;;;;24.30;76.90;;;;;;5167519;27;19921;-33
2023/08/07 11:34:26;;;;;;;;;;;24.30;77.00;;;;;;5169480;27;19929;-33
2023/08/07 11:36:55;;;;;;;;;;;24.30;77.00;;;;;;5173397;27;20005;-33
2023/08/07 11:39:20;;;;;;;;;;;24.30;76.90;;;;;;5169673;27;19954;-33
2023/08/07 11:41:47;;;;;;;;;;;24.30;77.00;;;;;;5174001;27;19918;-33
2023/08/07 11:44:13;;;;;;;;;;;24.30;77.00;;;;;;5168163;27;20336;-33
2023/08/07 11:46:39;;;;;;;;;;;24.30;77.00;;;;;;5175035;27;19918;-34
2023/08/07 11:49:05;;;;;;;;;;;24.30;77.00;;;;;;5160537;27;19911;-33
2023/08/07 11:51:32;;;;;;;;;;;24.30;77.10;;;;;;5175828;27;19946;-33
2023/08/07 11:53:59;;;;;;;;;;;24.30;77.10;;;;;;5173707;27;20043;-33
2023/08/07 11:56:24;;;;;;;;;;;24.30;77.10;;;;;;5175492;27;19923;-33
2023/08/07 11:58:51;;;;;;;;;;;24.30;77.20;;;;;;5179700;27;19919;-34
2023/08/07 12:01:27;;;;;;;;;;;24.30;77.10;;;;;;5170852;27;19911;-33
2023/08/07 12:03:56;;;;;;;;;;;24.30;77.20;;;;;;5171427;27;20005;-33
2023/08/07 12:06:25;;;;;;;;;;;24.30;77.20;;;;;;5169565;27;19945;-33
2023/08/07 12:08:53;;;;;;;;;;;24.30;77.20;;;;;;5170857;27;19918;-33
2023/08/07 12:11:20;;;;;;;;;;;24.30;77.20;;;;;;5173772;27;19918;-33
2023/08/07 12:13:46;;;;;;;;;;;24.30;77.20;;;;;;5171627;27;19966;-34
2023/08/07 12:16:16;;;;;;;;;;;24.30;77.30;;;;;;5183017;27;19911;-34
2023/08/07 12:18:48;;;;;;;;;;;24.30;77.20;;;;;;5170217;27;19919;-33
2023/08/07 12:21:19;;;;;;;;;;;24.20;77.20;;;;;;5166939;27;19958;-33
2023/08/07 12:23:47;;;;;;;;;;;24.20;77.30;;;;;;5167930;27;19921;-33
2023/08/07 12:26:13;;;;;;;;;;;24.20;77.30;;;;;;5165834;27;19922;-33
2023/08/07 12:28:39;;;;;;;;;;;24.20;77.30;;;;;;5170205;27;19915;-33
2023/08/07 12:31:06;;;;;;;;;;;24.20;77.30;;;;;;5178361;27;19910;-33
2023/08/07 12:33:32;;;;;;;;;;;24.20;77.30;;;;;;5149721;27;19911;-33
2023/08/07 12:35:58;;;;;;;;;;;24.20;77.30;;;;;;5171236;27;19948;-33
2023/08/07 12:38:24;;;;;;;;;;;24.20;77.30;;;;;;5178130;27;19918;-34
2023/08/07 12:40:50;;;;;;;;;;;24.20;77.30;;;;;;5172324;27;19915;-33
2023/08/07 12:43:16;;;;;;;;;;;24.20;77.40;;;;;;5173050;27;19915;-33
2023/08/07 12:45:42;;;;;;;;;;;24.20;77.30;;;;;;5170815;27;19962;-33
2023/08/07 12:48:08;;;;;;;;;;;24.20;77.40;;;;;;5170453;27;19915;-34
2023/08/07 12:50:34;;;;;;;;;;;24.20;77.40;;;;;;5176462;27;19915;-34
2023/08/07 12:53:00;;;;;;;;;;;24.20;77.40;;;;;;5180438;27;19937;-34
2023/08/07 12:55:27;;;;;;;;;;;24.20;77.50;;;;;;5183251;27;19923;-33
2023/08/07 12:57:53;;;;;;;;;;;24.20;77.40;;;;;;5182334;27;19914;-34
2023/08/07 13:00:19;;;;;;;;;;;24.20;77.40;;;;;;5169674;27;20409;-34
2023/08/07 13:02:45;;;;;;;;;;;24.20;77.50;;;;;;5180542;27;19918;-34
2023/08/07 13:05:12;;;;;;;;;;;24.20;77.50;;;;;;5171388;27;19957;-34
2023/08/07 13:07:38;;;;;;;;;;;24.20;77.60;;;;;;5176948;27;19974;-34
2023/08/07 13:10:04;;;;;;;;;;;24.20;77.70;;;;;;5173341;27;19918;-34
2023/08/07 13:12:33;;;;;;;;;;;24.20;77.80;;;;;;5181989;27;19917;-34
2023/08/07 13:15:00;;;;;;;;;;;24.20;77.50;;;;;;5170971;27;19919;-34
2023/08/07 13:17:26;;;;;;;;;;;24.20;77.60;;;;;;5180679;27;19987;-34
2023/08/07 13:19:51;;;;;;;;;;;24.20;77.60;;;;;;5173319;27;19966;-34
2023/08/07 13:22:17;;;;;;;;;;;24.20;77.60;;;;;;5173565;27;19915;-34
2023/08/07 13:24:43;;;;;;;;;;;24.20;77.60;;;;;;5179956;27;19915;-34
2023/08/07 13:27:09;;;;;;;;;;;24.20;77.60;;;;;;5176342;27;19911;-34
2023/08/07 13:29:35;;;;;;;;;;;24.20;77.70;;;;;;5180957;27;19933;-34
2023/08/07 13:32:03;;;;;;;;;;;24.30;77.70;;;;;;5166606;27;19922;-34
2023/08/07 13:34:29;;;;;;;;;;;24.30;77.80;;;;;;5180238;27;19911;-34
2023/08/07 13:36:55;;;;;;;;;;;24.30;77.90;;;;;;5175347;27;19919;-35
2023/08/07 13:39:21;;;;;;;;;;;24.30;77.90;;;;;;5174164;27;19919;-34
2023/08/07 13:41:47;;;;;;;;;;;24.30;77.80;;;;;;5177791;27;19915;-34
2023/08/07 13:44:13;;;;;;;;;;;24.30;77.90;;;;;;5182485;27;19946;-34
2023/08/07 13:46:39;;;;;;;;;;;24.30;77.80;;;;;;5166967;27;20544;-33
2023/08/07 13:49:04;;;;;;;;;;;24.30;77.80;;;;;;5180124;27;19933;-34
2023/08/07 13:51:31;;;;;;;;;;;24.30;77.80;;;;;;5169297;27;19915;-33
2023/08/07 13:53:57;;;;;;;;;;;24.30;77.80;;;;;;5170627;27;19911;-34
2023/08/07 13:56:23;;;;;;;;;;;24.30;77.70;;;;;;5171206;27;19915;-34
2023/08/07 13:58:48;;;;;;;;;;;24.30;77.60;;;;;;5171778;27;19923;-33
2023/08/07 14:01:14;;;;;;;;;;;24.30;77.70;;;;;;5172399;27;19911;-33
2023/08/07 14:03:40;;;;;;;;;;;24.30;77.60;;;;;;5173583;27;19946;-34
2023/08/07 14:06:06;;;;;;;;;;;24.30;77.60;;;;;;5170158;27;19919;-34
2023/08/07 14:08:34;;;;;;;;;;;24.30;77.70;;;;;;5178293;27;19911;-34
2023/08/07 14:11:00;;;;;;;;;;;24.30;77.70;;;;;;5175909;27;19945;-34